TimeMDT,TemperatureF,Dew PointF,Humidity,Sea Level PressureIn,VisibilityMPH,Wind Direction,Wind SpeedMPH,Gust SpeedMPH,PrecipitationIn,Events,Conditions,WindDirDegrees,DateUTC
12:54 AM,48.0,30.0,50,30.02,10.0,SW,6.9,-,N/A,,Clear,230,2013-04-27 06:54:00
1:54 AM,46.9,30.9,54,30.00,10.0,SW,15.0,-,N/A,,Clear,220,2013-04-27 07:54:00
2:54 AM,46.0,30.0,54,29.99,10.0,SW,9.2,-,N/A,,Clear,230,2013-04-27 08:54:00
3:54 AM,50.0,28.9,44,29.97,10.0,WSW,16.1,-,N/A,,Clear,240,2013-04-27 09:54:00
4:54 AM,48.9,27.0,43,29.96,10.0,WSW,11.5,-,N/A,,Clear,240,2013-04-27 10:54:00
5:54 AM,48.9,27.0,43,29.95,10.0,WSW,11.5,-,N/A,,Clear,240,2013-04-27 11:54:00
6:54 AM,51.1,26.1,38,29.96,10.0,WSW,11.5,-,N/A,,Partly Cloudy,250,2013-04-27 12:54:00
7:54 AM,57.9,27.0,31,29.95,10.0,WSW,20.7,-,N/A,,Clear,240,2013-04-27 13:54:00
8:54 AM,61.0,27.0,27,29.94,10.0,WSW,26.5,38.0,N/A,,Clear,250,2013-04-27 14:54:00
9:54 AM,64.0,25.0,23,29.93,10.0,West,25.3,33.4,N/A,,Clear,260,2013-04-27 15:54:00
10:54 AM,66.0,25.0,21,29.92,10.0,WNW,19.6,32.2,N/A,,Clear,290,2013-04-27 16:54:00
11:54 AM,66.9,24.1,20,29.90,10.0,West,17.3,29.9,N/A,,Clear,270,2013-04-27 17:54:00
12:54 PM,66.9,24.1,20,29.89,10.0,West,21.9,32.2,N/A,,Clear,280,2013-04-27 18:54:00
1:54 PM,63.0,27.0,26,29.90,10.0,WSW,19.6,-,N/A,,Clear,250,2013-04-27 19:54:00
2:54 PM,64.9,28.0,25,29.86,10.0,WSW,16.1,-,N/A,,Clear,240,2013-04-27 20:54:00
3:54 PM,68.0,26.1,21,29.80,10.0,West,20.7,27.6,N/A,,Clear,270,2013-04-27 21:54:00
4:54 PM,68.0,25.0,20,29.78,10.0,WNW,17.3,23.0,N/A,,Partly Cloudy,290,2013-04-27 22:54:00
5:54 PM,64.9,24.1,21,29.78,10.0,WNW,19.6,27.6,N/A,,Mostly Cloudy,300,2013-04-27 23:54:00
6:54 PM,63.0,26.1,25,29.77,10.0,WNW,13.8,-,N/A,,Clear,300,2013-04-28 00:54:00
7:54 PM,60.1,27.0,28,29.77,10.0,NW,8.1,-,N/A,,Mostly Cloudy,320,2013-04-28 01:54:00
8:54 PM,57.9,26.1,30,29.78,10.0,WNW,18.4,-,N/A,,Clear,300,2013-04-28 02:54:00
9:54 PM,55.0,28.0,35,29.80,10.0,WNW,6.9,-,N/A,,Clear,300,2013-04-28 03:54:00
10:54 PM,54.0,28.0,37,29.80,10.0,NW,5.8,-,N/A,,Scattered Clouds,320,2013-04-28 04:54:00
11:54 PM,53.1,28.0,38,29.80,10.0,West,8.1,-,N/A,,Mostly Cloudy,280,2013-04-28 05:54:00